sensor_id;sensor_type;location;lat;lon;timestamp;noise_LAeq;noise_LA_min;noise_LA_max;noise_LA01;noise_LA95
69617;Laerm;58075;52.218;4.640;2022-11-04T00:00:06;47.57;45.05;56.15;;
69617;Laerm;58075;52.218;4.640;2022-11-04T00:00:17;49.58;45.33;58.55;;
69617;Laerm;58075;52.218;4.640;2022-11-04T00:00:27;54.88;45.73;70.88;;
69617;Laerm;58075;52.218;4.640;2022-11-04T00:00:37;46.72;43.73;54.18;;
69617;Laerm;58075;52.218;4.640;2022-11-04T00:00:47;53.22;44.26;68.22;;
69617;Laerm;58075;52.218;4.640;2022-11-04T00:01:04;59.19;47.01;71.39;;
69617;Laerm;58075;52.218;4.640;2022-11-04T00:01:14;51.15;44.09;68.20;;
69617;Laerm;58075;52.218;4.640;2022-11-04T00:01:25;46.96;42.82;64.11;;
69617;Laerm;58075;52.218;4.640;2022-11-04T00:01:38;45.27;42.81;48.59;;
69617;Laerm;58075;52.218;4.640;2022-11-04T00:01:49;47.79;43.22;62.75;;
69617;Laerm;58075;52.218;4.640;2022-11-04T00:02:00;51.34;42.73;65.44;;
69617;Laerm;58075;52.218;4.640;2022-11-04T00:02:11;49.88;42.06;61.69;;
69617;Laerm;58075;52.218;4.640;2022-11-04T00:02:21;46.75;40.53;58.24;;
69617;Laerm;58075;52.218;4.640;2022-11-04T00:02:31;42.93;40.45;52.70;;
69617;Laerm;58075;52.218;4.640;2022-11-04T00:02:42;47.52;40.60;61.63;;
69617;Laerm;58075;52.218;4.640;2022-11-04T00:02:52;54.32;44.52;64.97;;
69617;Laerm;58075;52.218;4.640;2022-11-04T00:03:02;56.16;43.43;73.90;;
69617;Laerm;58075;52.218;4.640;2022-11-04T00:03:13;45.88;42.73;55.79;;
69617;Laerm;58075;52.218;4.640;2022-11-04T00:03:23;47.09;44.91;50.13;;
69617;Laerm;58075;52.218;4.640;2022-11-04T00:03:33;45.02;42.29;51.24;;
69617;Laerm;58075;52.218;4.640;2022-11-04T00:03:43;45.08;42.50;49.06;;
69617;Laerm;58075;52.218;4.640;2022-11-04T00:03:54;46.75;44.24;63.03;;
69617;Laerm;58075;52.218;4.640;2022-11-04T00:04:04;53.39;45.90;66.99;;
69617;Laerm;58075;52.218;4.640;2022-11-04T00:04:16;50.50;47.37;62.65;;
69617;Laerm;58075;52.218;4.640;2022-11-04T00:04:27;48.64;45.18;56.55;;
69617;Laerm;58075;52.218;4.640;2022-11-04T00:04:37;47.02;44.71;55.14;;
69617;Laerm;58075;52.218;4.640;2022-11-04T00:04:47;48.40;44.87;52.35;;
69617;Laerm;58075;52.218;4.640;2022-11-04T00:04:58;47.80;44.26;64.58;;
69617;Laerm;58075;52.218;4.640;2022-11-04T00:05:08;47.69;44.37;65.77;;
69617;Laerm;58075;52.218;4.640;2022-11-04T00:05:18;47.20;45.38;50.93;;
69617;Laerm;58075;52.218;4.640;2022-11-04T00:05:29;48.48;45.33;57.25;;
69617;Laerm;58075;52.218;4.640;2022-11-04T00:05:39;49.74;45.67;68.87;;
69617;Laerm;58075;52.218;4.640;2022-11-04T00:05:49;48.83;46.51;59.67;;
69617;Laerm;58075;52.218;4.640;2022-11-04T00:06:00;50.80;46.45;70.03;;
69617;Laerm;58075;52.218;4.640;2022-11-04T00:06:10;55.68;47.19;78.07;;
69617;Laerm;58075;52.218;4.640;2022-11-04T00:06:20;51.88;46.02;66.20;;
69617;Laerm;58075;52.218;4.640;2022-11-04T00:06:31;48.45;45.75;58.87;;
69617;Laerm;58075;52.218;4.640;2022-11-04T00:06:41;49.26;45.49;68.96;;
69617;Laerm;58075;52.218;4.640;2022-11-04T00:06:52;48.51;45.69;52.52;;
69617;Laerm;58075;52.218;4.640;2022-11-04T00:07:02;48.57;46.23;60.80;;
69617;Laerm;58075;52.218;4.640;2022-11-04T00:07:33;49.81;46.81;59.66;;
69617;Laerm;58075;52.218;4.640;2022-11-04T00:08:01;49.99;45.14;70.87;;
69617;Laerm;58075;52.218;4.640;2022-11-04T00:08:30;48.30;43.97;67.17;;
69617;Laerm;58075;52.218;4.640;2022-11-04T00:08:40;50.18;47.23;58.19;;
69617;Laerm;58075;52.218;4.640;2022-11-04T00:08:51;51.31;48.75;56.06;;
69617;Laerm;58075;52.218;4.640;2022-11-04T00:09:03;50.94;48.32;67.14;;
69617;Laerm;58075;52.218;4.640;2022-11-04T00:09:20;49.65;46.38;64.20;;
69617;Laerm;58075;52.218;4.640;2022-11-04T00:09:31;47.31;44.69;59.76;;
69617;Laerm;58075;52.218;4.640;2022-11-04T00:09:41;47.07;44.78;56.37;;
69617;Laerm;58075;52.218;4.640;2022-11-04T00:09:51;47.88;45.33;53.63;;
69617;Laerm;58075;52.218;4.640;2022-11-04T00:10:01;47.39;44.89;59.51;;
69617;Laerm;58075;52.218;4.640;2022-11-04T00:10:12;47.26;44.13;63.25;;
69617;Laerm;58075;52.218;4.640;2022-11-04T00:10:22;46.60;44.62;56.30;;
69617;Laerm;58075;52.218;4.640;2022-11-04T00:10:53;48.90;44.62;63.04;;
69617;Laerm;58075;52.218;4.640;2022-11-04T00:11:22;49.43;43.49;66.99;;
69617;Laerm;58075;52.218;4.640;2022-11-04T00:11:51;46.29;42.68;60.41;;
69617;Laerm;58075;52.218;4.640;2022-11-04T00:12:20;45.97;42.03;62.34;;
69617;Laerm;58075;52.218;4.640;2022-11-04T00:12:36;48.47;45.29;61.77;;
69617;Laerm;58075;52.218;4.640;2022-11-04T00:12:47;50.42;44.83;71.96;;
69617;Laerm;58075;52.218;4.640;2022-11-04T00:12:57;47.36;45.46;50.78;;
69617;Laerm;58075;52.218;4.640;2022-11-04T00:13:07;48.51;45.29;56.24;;
69617;Laerm;58075;52.218;4.640;2022-11-04T00:13:18;48.44;46.16;51.88;;
69617;Laerm;58075;52.218;4.640;2022-11-04T00:13:28;48.39;45.46;52.27;;
69617;Laerm;58075;52.218;4.640;2022-11-04T00:13:39;47.86;45.75;50.99;;
69617;Laerm;58075;52.218;4.640;2022-11-04T00:13:49;47.55;44.44;60.95;;
69617;Laerm;58075;52.218;4.640;2022-11-04T00:13:59;46.05;43.03;49.59;;
69617;Laerm;58075;52.218;4.640;2022-11-04T00:14:10;47.22;43.75;57.29;;
69617;Laerm;58075;52.218;4.640;2022-11-04T00:14:21;48.97;44.56;59.17;;
69617;Laerm;58075;52.218;4.640;2022-11-04T00:14:31;47.89;44.71;54.86;;
69617;Laerm;58075;52.218;4.640;2022-11-04T00:14:42;50.12;47.37;60.36;;
69617;Laerm;58075;52.218;4.640;2022-11-04T00:14:52;49.56;45.75;55.94;;
69617;Laerm;58075;52.218;4.640;2022-11-04T00:15:03;47.12;44.43;51.19;;
69617;Laerm;58075;52.218;4.640;2022-11-04T00:15:35;46.52;42.94;56.54;;
69617;Laerm;58075;52.218;4.640;2022-11-04T00:16:04;48.61;43.30;61.60;;
69617;Laerm;58075;52.218;4.640;2022-11-04T00:16:33;48.74;45.62;68.79;;
69617;Laerm;58075;52.218;4.640;2022-11-04T00:17:02;47.33;44.56;53.59;;
69617;Laerm;58075;52.218;4.640;2022-11-04T00:17:28;47.68;43.80;57.70;;
69617;Laerm;58075;52.218;4.640;2022-11-04T00:17:38;46.15;44.20;54.24;;
69617;Laerm;58075;52.218;4.640;2022-11-04T00:17:48;44.75;42.75;50.21;;
69617;Laerm;58075;52.218;4.640;2022-11-04T00:17:59;44.71;42.38;48.29;;
69617;Laerm;58075;52.218;4.640;2022-11-04T00:18:09;46.31;42.31;57.79;;
69617;Laerm;58075;52.218;4.640;2022-11-04T00:18:19;44.86;41.10;54.16;;
69617;Laerm;58075;52.218;4.640;2022-11-04T00:18:29;47.02;42.48;59.88;;
69617;Laerm;58075;52.218;4.640;2022-11-04T00:18:40;45.58;42.81;51.85;;
69617;Laerm;58075;52.218;4.640;2022-11-04T00:18:51;44.81;41.34;55.84;;
69617;Laerm;58075;52.218;4.640;2022-11-04T00:19:01;44.20;41.93;49.92;;
69617;Laerm;58075;52.218;4.640;2022-11-04T00:19:12;44.61;41.73;48.36;;
69617;Laerm;58075;52.218;4.640;2022-11-04T00:19:22;45.13;41.11;51.87;;
69617;Laerm;58075;52.218;4.640;2022-11-04T00:19:32;43.91;40.48;52.53;;
69617;Laerm;58075;52.218;4.640;2022-11-04T00:20:03;43.06;39.96;50.58;;
69617;Laerm;58075;52.218;4.640;2022-11-04T00:20:32;48.13;40.52;60.98;;
69617;Laerm;58075;52.218;4.640;2022-11-04T00:21:00;47.80;43.16;60.24;;
69617;Laerm;58075;52.218;4.640;2022-11-04T00:21:31;50.46;43.85;75.62;;
69617;Laerm;58075;52.218;4.640;2022-11-04T00:22:00;48.82;46.09;55.10;;
69617;Laerm;58075;52.218;4.640;2022-11-04T00:22:29;48.60;46.26;52.98;;
69617;Laerm;58075;52.218;4.640;2022-11-04T00:22:58;54.04;45.52;81.68;;
69617;Laerm;58075;52.218;4.640;2022-11-04T00:23:26;49.62;44.95;70.25;;
69617;Laerm;58075;52.218;4.640;2022-11-04T00:23:55;51.68;46.71;70.59;;
69617;Laerm;58075;52.218;4.640;2022-11-04T00:24:24;52.86;48.83;72.61;;
69617;Laerm;58075;52.218;4.640;2022-11-04T00:24:53;48.59;45.86;61.80;;
69617;Laerm;58075;52.218;4.640;2022-11-04T00:25:22;50.11;46.16;66.57;;
69617;Laerm;58075;52.218;4.640;2022-11-04T00:25:51;48.37;45.06;57.27;;
69617;Laerm;58075;52.218;4.640;2022-11-04T00:26:20;48.70;44.46;67.10;;
69617;Laerm;58075;52.218;4.640;2022-11-04T00:26:49;50.47;44.79;55.78;;
69617;Laerm;58075;52.218;4.640;2022-11-04T00:27:18;55.10;49.39;65.61;;
69617;Laerm;58075;52.218;4.640;2022-11-04T00:27:47;54.82;47.66;63.92;;
69617;Laerm;58075;52.218;4.640;2022-11-04T00:28:17;59.95;53.39;80.14;;
69617;Laerm;58075;52.218;4.640;2022-11-04T00:28:46;60.18;52.90;84.02;;
69617;Laerm;58075;52.218;4.640;2022-11-04T00:28:57;62.97;58.96;80.75;;
69617;Laerm;58075;52.218;4.640;2022-11-04T00:29:07;59.57;55.15;73.87;;
69617;Laerm;58075;52.218;4.640;2022-11-04T00:29:17;57.46;54.38;75.45;;
69617;Laerm;58075;52.218;4.640;2022-11-04T00:29:27;56.48;51.81;73.31;;
69617;Laerm;58075;52.218;4.640;2022-11-04T00:29:38;51.82;49.58;58.80;;
69617;Laerm;58075;52.218;4.640;2022-11-04T00:29:48;53.62;48.18;72.53;;
69617;Laerm;58075;52.218;4.640;2022-11-04T00:29:58;48.43;44.64;60.72;;
69617;Laerm;58075;52.218;4.640;2022-11-04T00:30:09;46.58;43.27;55.61;;
69617;Laerm;58075;52.218;4.640;2022-11-04T00:30:20;47.18;42.91;65.15;;
69617;Laerm;58075;52.218;4.640;2022-11-04T00:30:30;44.73;41.22;51.82;;
69617;Laerm;58075;52.218;4.640;2022-11-04T00:30:40;44.27;40.44;52.40;;
69617;Laerm;58075;52.218;4.640;2022-11-04T00:30:54;43.78;40.58;51.29;;
69617;Laerm;58075;52.218;4.640;2022-11-04T00:31:06;43.79;39.78;52.34;;
69617;Laerm;58075;52.218;4.640;2022-11-04T00:31:36;43.56;39.20;55.79;;
69617;Laerm;58075;52.218;4.640;2022-11-04T00:32:05;43.37;39.73;53.65;;
69617;Laerm;58075;52.218;4.640;2022-11-04T00:32:33;42.78;38.57;55.96;;
69617;Laerm;58075;52.218;4.640;2022-11-04T00:33:02;42.45;38.86;53.41;;
69617;Laerm;58075;52.218;4.640;2022-11-04T00:33:31;43.71;39.72;53.11;;
69617;Laerm;58075;52.218;4.640;2022-11-04T00:33:41;45.63;42.06;57.45;;
69617;Laerm;58075;52.218;4.640;2022-11-04T00:33:53;47.78;45.36;58.60;;
69617;Laerm;58075;52.218;4.640;2022-11-04T00:34:03;49.67;45.05;55.73;;
69617;Laerm;58075;52.218;4.640;2022-11-04T00:34:13;68.69;50.13;91.51;;
69617;Laerm;58075;52.218;4.640;2022-11-04T00:34:24;50.80;45.97;64.04;;
69617;Laerm;58075;52.218;4.640;2022-11-04T00:34:34;46.39;44.05;58.40;;
69617;Laerm;58075;52.218;4.640;2022-11-04T00:34:44;45.42;43.33;55.09;;
69617;Laerm;58075;52.218;4.640;2022-11-04T00:34:55;45.85;43.84;52.20;;
69617;Laerm;58075;52.218;4.640;2022-11-04T00:35:05;53.39;43.80;76.98;;
69617;Laerm;58075;52.218;4.640;2022-11-04T00:35:15;48.68;43.88;60.70;;
69617;Laerm;58075;52.218;4.640;2022-11-04T00:35:26;46.94;41.70;57.91;;
69617;Laerm;58075;52.218;4.640;2022-11-04T00:35:36;45.71;41.00;66.07;;
69617;Laerm;58075;52.218;4.640;2022-11-04T00:35:47;44.56;41.72;55.66;;
69617;Laerm;58075;52.218;4.640;2022-11-04T00:35:58;44.97;42.17;56.83;;
69617;Laerm;58075;52.218;4.640;2022-11-04T00:36:08;48.83;41.98;61.04;;
69617;Laerm;58075;52.218;4.640;2022-11-04T00:36:19;44.16;41.53;49.70;;
69617;Laerm;58075;52.218;4.640;2022-11-04T00:36:29;45.12;41.27;64.75;;
69617;Laerm;58075;52.218;4.640;2022-11-04T00:36:39;45.34;39.35;66.12;;
69617;Laerm;58075;52.218;4.640;2022-11-04T00:36:50;42.23;38.59;51.17;;
69617;Laerm;58075;52.218;4.640;2022-11-04T00:37:00;41.62;38.48;51.24;;
69617;Laerm;58075;52.218;4.640;2022-11-04T00:37:12;41.33;38.95;51.57;;
69617;Laerm;58075;52.218;4.640;2022-11-04T00:37:22;41.12;38.32;47.92;;
69617;Laerm;58075;52.218;4.640;2022-11-04T00:37:39;42.05;38.48;47.37;;
69617;Laerm;58075;52.218;4.640;2022-11-04T00:37:50;47.68;37.14;68.03;;
69617;Laerm;58075;52.218;4.640;2022-11-04T00:38:00;42.95;38.04;53.08;;
69617;Laerm;58075;52.218;4.640;2022-11-04T00:38:10;41.68;37.66;49.96;;
69617;Laerm;58075;52.218;4.640;2022-11-04T00:38:21;43.15;38.62;56.51;;
69617;Laerm;58075;52.218;4.640;2022-11-04T00:38:31;43.49;38.56;46.96;;
69617;Laerm;58075;52.218;4.640;2022-11-04T00:38:42;44.70;38.33;55.96;;
69617;Laerm;58075;52.218;4.640;2022-11-04T00:38:52;45.38;38.74;53.70;;
69617;Laerm;58075;52.218;4.640;2022-11-04T00:39:02;43.47;38.90;51.59;;
69617;Laerm;58075;52.218;4.640;2022-11-04T00:39:13;41.32;38.31;51.35;;
69617;Laerm;58075;52.218;4.640;2022-11-04T00:39:23;46.22;36.55;57.97;;
69617;Laerm;58075;52.218;4.640;2022-11-04T00:39:33;47.89;37.63;58.86;;
69617;Laerm;58075;52.218;4.640;2022-11-04T00:39:43;39.68;36.22;47.76;;
69617;Laerm;58075;52.218;4.640;2022-11-04T00:39:54;39.00;36.68;45.07;;
69617;Laerm;58075;52.218;4.640;2022-11-04T00:40:04;40.35;38.17;48.96;;
69617;Laerm;58075;52.218;4.640;2022-11-04T00:40:15;39.79;37.12;44.73;;
69617;Laerm;58075;52.218;4.640;2022-11-04T00:40:26;39.83;37.64;43.80;;
69617;Laerm;58075;52.218;4.640;2022-11-04T00:40:36;43.98;38.85;57.26;;
69617;Laerm;58075;52.218;4.640;2022-11-04T00:40:46;42.61;38.06;50.38;;
69617;Laerm;58075;52.218;4.640;2022-11-04T00:40:57;50.76;40.09;62.39;;
69617;Laerm;58075;52.218;4.640;2022-11-04T00:41:07;46.71;41.22;55.27;;
69617;Laerm;58075;52.218;4.640;2022-11-04T00:41:34;44.97;41.18;64.44;;
69617;Laerm;58075;52.218;4.640;2022-11-04T00:41:45;50.74;42.89;73.72;;
69617;Laerm;58075;52.218;4.640;2022-11-04T00:41:55;57.73;47.85;81.19;;
69617;Laerm;58075;52.218;4.640;2022-11-04T00:42:05;56.33;50.45;78.34;;
69617;Laerm;58075;52.218;4.640;2022-11-04T00:42:16;51.66;48.70;55.04;;
69617;Laerm;58075;52.218;4.640;2022-11-04T00:42:26;54.50;49.70;71.83;;
69617;Laerm;58075;52.218;4.640;2022-11-04T00:42:36;59.11;52.27;79.92;;
69617;Laerm;58075;52.218;4.640;2022-11-04T00:42:47;56.17;53.58;60.07;;
69617;Laerm;58075;52.218;4.640;2022-11-04T00:42:57;55.62;53.51;64.97;;
69617;Laerm;58075;52.218;4.640;2022-11-04T00:43:07;57.52;54.47;65.97;;
69617;Laerm;58075;52.218;4.640;2022-11-04T00:43:17;53.82;51.34;58.02;;
69617;Laerm;58075;52.218;4.640;2022-11-04T00:43:28;52.27;49.17;60.44;;
69617;Laerm;58075;52.218;4.640;2022-11-04T00:43:38;50.87;48.16;58.03;;
69617;Laerm;58075;52.218;4.640;2022-11-04T00:43:48;63.78;47.47;88.27;;
69617;Laerm;58075;52.218;4.640;2022-11-04T00:44:00;50.73;48.37;54.56;;
69617;Laerm;58075;52.218;4.640;2022-11-04T00:44:10;53.96;48.50;69.51;;
69617;Laerm;58075;52.218;4.640;2022-11-04T00:44:20;50.38;47.18;55.71;;
69617;Laerm;58075;52.218;4.640;2022-11-04T00:44:31;51.73;47.95;69.19;;
69617;Laerm;58075;52.218;4.640;2022-11-04T00:44:41;50.39;47.12;55.06;;
69617;Laerm;58075;52.218;4.640;2022-11-04T00:44:51;49.00;46.36;55.63;;
69617;Laerm;58075;52.218;4.640;2022-11-04T00:45:01;47.32;45.20;55.28;;
69617;Laerm;58075;52.218;4.640;2022-11-04T00:45:12;48.38;44.95;57.06;;
69617;Laerm;58075;52.218;4.640;2022-11-04T00:45:22;47.69;45.40;52.33;;
69617;Laerm;58075;52.218;4.640;2022-11-04T00:45:33;48.36;44.08;68.37;;
69617;Laerm;58075;52.218;4.640;2022-11-04T00:45:43;45.36;42.21;50.28;;
69617;Laerm;58075;52.218;4.640;2022-11-04T00:45:54;45.41;43.08;49.00;;
69617;Laerm;58075;52.218;4.640;2022-11-04T00:46:04;44.04;40.97;49.19;;
69617;Laerm;58075;52.218;4.640;2022-11-04T00:46:14;43.14;40.71;50.45;;
69617;Laerm;58075;52.218;4.640;2022-11-04T00:46:25;42.96;40.58;46.66;;
69617;Laerm;58075;52.218;4.640;2022-11-04T00:46:35;47.72;40.83;68.36;;
69617;Laerm;58075;52.218;4.640;2022-11-04T00:46:46;46.88;40.44;68.57;;
69617;Laerm;58075;52.218;4.640;2022-11-04T00:46:56;45.27;39.43;66.61;;
69617;Laerm;58075;52.218;4.640;2022-11-04T00:47:06;42.92;39.73;49.01;;
69617;Laerm;58075;52.218;4.640;2022-11-04T00:47:16;41.57;38.71;48.94;;
69617;Laerm;58075;52.218;4.640;2022-11-04T00:47:27;41.54;37.86;56.70;;
69617;Laerm;58075;52.218;4.640;2022-11-04T00:47:37;42.26;37.91;57.19;;
69617;Laerm;58075;52.218;4.640;2022-11-04T00:47:47;44.97;40.98;58.54;;
69617;Laerm;58075;52.218;4.640;2022-11-04T00:47:58;43.38;39.87;57.49;;
69617;Laerm;58075;52.218;4.640;2022-11-04T00:48:08;44.51;39.81;49.15;;
69617;Laerm;58075;52.218;4.640;2022-11-04T00:48:18;43.93;39.07;53.60;;
69617;Laerm;58075;52.218;4.640;2022-11-04T00:48:29;43.29;40.44;49.05;;
69617;Laerm;58075;52.218;4.640;2022-11-04T00:48:39;44.06;39.79;48.77;;
69617;Laerm;58075;52.218;4.640;2022-11-04T00:48:49;42.67;39.19;49.54;;
69617;Laerm;58075;52.218;4.640;2022-11-04T00:48:59;40.94;38.25;49.62;;
69617;Laerm;58075;52.218;4.640;2022-11-04T00:49:10;42.00;38.84;50.49;;
69617;Laerm;58075;52.218;4.640;2022-11-04T00:49:21;44.70;38.93;54.73;;
69617;Laerm;58075;52.218;4.640;2022-11-04T00:49:32;47.88;40.25;53.62;;
69617;Laerm;58075;52.218;4.640;2022-11-04T00:49:42;47.29;41.94;54.45;;
69617;Laerm;58075;52.218;4.640;2022-11-04T00:49:52;42.82;38.82;46.31;;
69617;Laerm;58075;52.218;4.640;2022-11-04T00:50:03;42.35;38.45;56.54;;
69617;Laerm;58075;52.218;4.640;2022-11-04T00:50:13;40.19;38.06;44.50;;
69617;Laerm;58075;52.218;4.640;2022-11-04T00:50:24;40.72;36.69;53.46;;
69617;Laerm;58075;52.218;4.640;2022-11-04T00:50:34;45.49;36.08;58.66;;
69617;Laerm;58075;52.218;4.640;2022-11-04T00:50:44;39.03;35.31;43.89;;
69617;Laerm;58075;52.218;4.640;2022-11-04T00:50:54;40.82;36.34;57.83;;
69617;Laerm;58075;52.218;4.640;2022-11-04T00:51:05;38.30;35.80;49.66;;
69617;Laerm;58075;52.218;4.640;2022-11-04T00:51:15;38.87;36.23;44.80;;
69617;Laerm;58075;52.218;4.640;2022-11-04T00:51:25;40.37;37.35;45.89;;
69617;Laerm;58075;52.218;4.640;2022-11-04T00:51:36;44.21;38.34;57.77;;
69617;Laerm;58075;52.218;4.640;2022-11-04T00:51:46;42.98;39.26;58.72;;
69617;Laerm;58075;52.218;4.640;2022-11-04T00:51:56;40.70;37.33;45.78;;
69617;Laerm;58075;52.218;4.640;2022-11-04T00:52:07;45.80;39.53;52.62;;
69617;Laerm;58075;52.218;4.640;2022-11-04T00:52:17;43.32;39.36;50.73;;
69617;Laerm;58075;52.218;4.640;2022-11-04T00:52:27;42.63;38.41;50.89;;
69617;Laerm;58075;52.218;4.640;2022-11-04T00:52:38;42.10;38.83;53.42;;
69617;Laerm;58075;52.218;4.640;2022-11-04T00:52:48;43.43;40.00;54.23;;
69617;Laerm;58075;52.218;4.640;2022-11-04T00:52:59;43.50;39.38;49.12;;
69617;Laerm;58075;52.218;4.640;2022-11-04T00:53:09;42.06;38.74;51.80;;
69617;Laerm;58075;52.218;4.640;2022-11-04T00:53:19;43.46;39.49;51.97;;
69617;Laerm;58075;52.218;4.640;2022-11-04T00:53:30;42.00;38.69;50.50;;
69617;Laerm;58075;52.218;4.640;2022-11-04T00:53:40;41.78;39.09;47.06;;
69617;Laerm;58075;52.218;4.640;2022-11-04T00:53:50;40.71;37.85;44.34;;
69617;Laerm;58075;52.218;4.640;2022-11-04T00:54:00;41.38;36.43;56.93;;
69617;Laerm;58075;52.218;4.640;2022-11-04T00:54:11;39.71;36.23;44.49;;
69617;Laerm;58075;52.218;4.640;2022-11-04T00:54:21;40.14;36.61;47.05;;
69617;Laerm;58075;52.218;4.640;2022-11-04T00:54:31;41.05;37.83;45.28;;
69617;Laerm;58075;52.218;4.640;2022-11-04T00:54:42;43.74;37.12;51.46;;
69617;Laerm;58075;52.218;4.640;2022-11-04T00:54:52;43.22;38.17;53.86;;
69617;Laerm;58075;52.218;4.640;2022-11-04T00:55:03;43.21;39.03;49.47;;
69617;Laerm;58075;52.218;4.640;2022-11-04T00:55:13;41.03;38.10;45.75;;
69617;Laerm;58075;52.218;4.640;2022-11-04T00:55:23;40.10;36.71;44.31;;
69617;Laerm;58075;52.218;4.640;2022-11-04T00:55:34;39.84;36.34;43.79;;
69617;Laerm;58075;52.218;4.640;2022-11-04T00:55:44;42.19;39.04;47.94;;
69617;Laerm;58075;52.218;4.640;2022-11-04T00:55:57;42.28;38.68;46.55;;
69617;Laerm;58075;52.218;4.640;2022-11-04T00:56:08;43.41;38.75;46.97;;
69617;Laerm;58075;52.218;4.640;2022-11-04T00:56:18;41.74;37.56;52.31;;
69617;Laerm;58075;52.218;4.640;2022-11-04T00:56:29;40.71;37.75;48.38;;
69617;Laerm;58075;52.218;4.640;2022-11-04T00:56:39;44.67;37.83;51.48;;
69617;Laerm;58075;52.218;4.640;2022-11-04T00:56:50;40.85;37.00;45.51;;
69617;Laerm;58075;52.218;4.640;2022-11-04T00:57:00;42.14;39.36;45.43;;
69617;Laerm;58075;52.218;4.640;2022-11-04T00:57:11;40.90;37.70;46.22;;
69617;Laerm;58075;52.218;4.640;2022-11-04T00:57:21;43.15;37.96;48.06;;
69617;Laerm;58075;52.218;4.640;2022-11-04T00:57:31;42.80;38.35;51.26;;
69617;Laerm;58075;52.218;4.640;2022-11-04T00:57:41;40.86;37.93;45.01;;
69617;Laerm;58075;52.218;4.640;2022-11-04T00:57:52;41.93;37.81;45.93;;
69617;Laerm;58075;52.218;4.640;2022-11-04T00:58:02;44.16;39.16;58.25;;
69617;Laerm;58075;52.218;4.640;2022-11-04T00:58:12;46.49;40.45;52.42;;
69617;Laerm;58075;52.218;4.640;2022-11-04T00:58:22;42.27;36.53;48.91;;
69617;Laerm;58075;52.218;4.640;2022-11-04T00:58:33;38.48;35.86;44.24;;
69617;Laerm;58075;52.218;4.640;2022-11-04T00:58:43;39.57;35.39;43.95;;
69617;Laerm;58075;52.218;4.640;2022-11-04T00:58:53;36.89;34.58;42.66;;
69617;Laerm;58075;52.218;4.640;2022-11-04T00:59:04;38.51;34.65;45.77;;
69617;Laerm;58075;52.218;4.640;2022-11-04T00:59:14;41.30;37.04;46.48;;
69617;Laerm;58075;52.218;4.640;2022-11-04T00:59:24;41.20;37.60;46.38;;
69617;Laerm;58075;52.218;4.640;2022-11-04T00:59:35;40.94;37.28;47.99;;
69617;Laerm;58075;52.218;4.640;2022-11-04T00:59:45;39.43;35.55;45.65;;
69617;Laerm;58075;52.218;4.640;2022-11-04T00:59:55;39.20;36.52;44.98;;
69617;Laerm;58075;52.218;4.640;2022-11-04T01:00:06;40.47;37.02;47.92;;
69617;Laerm;58075;52.218;4.640;2022-11-04T01:00:16;40.68;35.90;50.82;;
69617;Laerm;58075;52.218;4.640;2022-11-04T01:00:27;41.79;36.46;49.96;;
69617;Laerm;58075;52.218;4.640;2022-11-04T01:00:38;45.62;36.21;53.94;;
69617;Laerm;58075;52.218;4.640;2022-11-04T01:00:49;42.85;38.55;47.60;;
69617;Laerm;58075;52.218;4.640;2022-11-04T01:01:00;44.30;37.38;55.58;;
69617;Laerm;58075;52.218;4.640;2022-11-04T01:01:11;41.87;34.50;55.50;;
69617;Laerm;58075;52.218;4.640;2022-11-04T01:01:22;37.93;35.18;42.57;;
69617;Laerm;58075;52.218;4.640;2022-11-04T01:01:32;39.48;36.41;46.84;;
69617;Laerm;58075;52.218;4.640;2022-11-04T01:01:42;40.70;37.75;44.20;;
69617;Laerm;58075;52.218;4.640;2022-11-04T01:01:53;46.17;39.42;50.93;;
69617;Laerm;58075;52.218;4.640;2022-11-04T01:02:04;45.28;40.40;50.39;;
69617;Laerm;58075;52.218;4.640;2022-11-04T01:02:15;46.43;39.95;53.00;;
69617;Laerm;58075;52.218;4.640;2022-11-04T01:02:25;47.80;40.92;57.27;;
69617;Laerm;58075;52.218;4.640;2022-11-04T01:02:35;44.57;41.27;49.90;;
69617;Laerm;58075;52.218;4.640;2022-11-04T01:02:46;44.58;39.65;50.30;;
69617;Laerm;58075;52.218;4.640;2022-11-04T01:02:56;43.69;40.11;50.33;;
69617;Laerm;58075;52.218;4.640;2022-11-04T01:03:09;45.53;40.02;58.42;;
69617;Laerm;58075;52.218;4.640;2022-11-04T01:03:19;41.73;36.80;54.39;;
69617;Laerm;58075;52.218;4.640;2022-11-04T01:03:29;42.33;38.82;48.71;;
69617;Laerm;58075;52.218;4.640;2022-11-04T01:03:39;48.07;42.94;51.03;;
69617;Laerm;58075;52.218;4.640;2022-11-04T01:03:50;45.29;41.95;49.06;;
69617;Laerm;58075;52.218;4.640;2022-11-04T01:04:01;42.81;39.08;53.60;;
69617;Laerm;58075;52.218;4.640;2022-11-04T01:04:11;42.89;39.25;46.81;;
69617;Laerm;58075;52.218;4.640;2022-11-04T01:04:22;41.25;38.92;44.57;;
69617;Laerm;58075;52.218;4.640;2022-11-04T01:04:32;42.87;38.56;46.19;;
69617;Laerm;58075;52.218;4.640;2022-11-04T01:04:42;43.87;39.74;47.62;;
69617;Laerm;58075;52.218;4.640;2022-11-04T01:04:52;42.10;38.93;47.06;;
69617;Laerm;58075;52.218;4.640;2022-11-04T01:05:03;44.31;38.81;48.49;;
69617;Laerm;58075;52.218;4.640;2022-11-04T01:05:13;45.13;41.19;53.87;;
69617;Laerm;58075;52.218;4.640;2022-11-04T01:05:23;48.18;39.20;63.68;;
69617;Laerm;58075;52.218;4.640;2022-11-04T01:05:35;43.42;38.35;56.94;;
69617;Laerm;58075;52.218;4.640;2022-11-04T01:05:46;40.35;36.84;46.12;;
69617;Laerm;58075;52.218;4.640;2022-11-04T01:05:56;42.69;37.28;50.85;;
69617;Laerm;58075;52.218;4.640;2022-11-04T01:06:07;50.14;39.12;64.01;;
69617;Laerm;58075;52.218;4.640;2022-11-04T01:06:17;40.09;36.34;50.10;;
69617;Laerm;58075;52.218;4.640;2022-11-04T01:06:28;42.26;36.87;56.10;;
69617;Laerm;58075;52.218;4.640;2022-11-04T01:06:38;47.19;41.28;63.61;;
69617;Laerm;58075;52.218;4.640;2022-11-04T01:06:48;46.13;41.23;57.74;;
69617;Laerm;58075;52.218;4.640;2022-11-04T01:06:59;45.69;42.63;53.34;;
69617;Laerm;58075;52.218;4.640;2022-11-04T01:07:09;50.35;43.56;60.33;;
69617;Laerm;58075;52.218;4.640;2022-11-04T01:07:20;54.55;42.87;77.46;;
69617;Laerm;58075;52.218;4.640;2022-11-04T01:07:30;45.30;43.03;53.17;;
69617;Laerm;58075;52.218;4.640;2022-11-04T01:07:40;44.89;42.89;55.82;;
69617;Laerm;58075;52.218;4.640;2022-11-04T01:07:50;46.09;43.06;52.77;;
69617;Laerm;58075;52.218;4.640;2022-11-04T01:08:01;47.05;43.79;57.94;;
69617;Laerm;58075;52.218;4.640;2022-11-04T01:08:11;48.74;45.86;55.65;;
69617;Laerm;58075;52.218;4.640;2022-11-04T01:08:21;48.46;44.66;65.79;;
69617;Laerm;58075;52.218;4.640;2022-11-04T01:08:32;59.29;45.62;72.78;;
69617;Laerm;58075;52.218;4.640;2022-11-04T01:08:42;57.59;47.05;72.62;;
69617;Laerm;58075;52.218;4.640;2022-11-04T01:08:56;64.16;49.64;76.61;;
69617;Laerm;58075;52.218;4.640;2022-11-04T01:09:07;64.20;51.50;78.58;;
69617;Laerm;58075;52.218;4.640;2022-11-04T01:09:18;60.62;49.63;73.88;;
69617;Laerm;58075;52.218;4.640;2022-11-04T01:09:28;71.02;50.84;84.08;;
69617;Laerm;58075;52.218;4.640;2022-11-04T01:09:39;72.88;50.31;88.74;;
69617;Laerm;58075;52.218;4.640;2022-11-04T01:09:49;70.98;48.74;87.70;;
69617;Laerm;58075;52.218;4.640;2022-11-04T01:09:59;69.89;48.31;86.81;;
69617;Laerm;58075;52.218;4.640;2022-11-04T01:10:09;74.99;48.09;88.16;;
69617;Laerm;58075;52.218;4.640;2022-11-04T01:10:20;54.12;46.16;68.71;;
69617;Laerm;58075;52.218;4.640;2022-11-04T01:10:30;69.77;47.08;84.11;;